Terminal Aerodrome Forecast
Issued by NWS

Home | Current Version | Previous Version | Text Only | Print | Product List | Glossary On
Versions: 1 2 3 4 5 6 7 8 9 10 11 12 13
000
FTUS42 TJSJ 050549
TAFJMZ
TAF
TJMZ 050549Z 0506/0606 07005KT P6SM FEW025
     FM051430 25010KT P6SM SCT025 BKN040
     FM051730 VRB12KT P6SM VCTS BKN030CB
     FM052330 07005KT P6SM FEW025
      AMD NOT SKED TIL 051500=

USA.gov is the U.S. government's official web portal to all federal, state and local government web resources and services.